createdAt,value
2023-01-29T00:00:05.143Z,21.86
2023-01-29T00:02:44.151Z,21.83
2023-01-29T00:05:27.485Z,21.53
2023-01-29T00:07:59.858Z,22.19
2023-01-29T00:10:31.473Z,22.00
2023-01-29T00:13:03.028Z,22.63
2023-01-29T00:15:34.720Z,22.58
2023-01-29T00:18:06.285Z,22.54
2023-01-29T00:20:37.846Z,21.84
2023-01-29T00:23:09.577Z,21.77
2023-01-29T00:25:42.543Z,22.62
2023-01-29T00:28:15.405Z,22.30
2023-01-29T00:30:47.043Z,22.55
2023-01-29T00:33:18.604Z,22.47
2023-01-29T00:35:50.795Z,22.56
2023-01-29T00:38:22.387Z,21.89
2023-01-29T00:40:54.449Z,22.83
2023-01-29T00:43:26.317Z,22.52
2023-01-29T00:45:57.900Z,21.83
2023-01-29T00:48:29.609Z,22.18
2023-01-29T00:51:03.039Z,23.07
2023-01-29T00:53:34.602Z,22.43
2023-01-29T00:56:06.754Z,22.83
2023-01-29T00:58:38.342Z,21.98
2023-01-29T01:01:09.962Z,22.43
2023-01-29T01:03:41.558Z,23.93
2023-01-29T01:06:13.144Z,22.44
2023-01-29T01:08:46.588Z,23.63
2023-01-29T01:11:18.672Z,22.99
2023-01-29T01:13:50.294Z,22.20
2023-01-29T01:16:24.517Z,22.84
2023-01-29T01:18:56.751Z,23.76
2023-01-29T01:21:28.319Z,22.94
2023-01-29T01:23:59.904Z,22.68
2023-01-29T01:26:33.079Z,23.10
2023-01-29T01:29:05.002Z,23.51
2023-01-29T01:31:36.693Z,23.71
2023-01-29T01:34:08.245Z,24.67
2023-01-29T01:36:39.822Z,23.42
2023-01-29T01:39:11.502Z,23.80
2023-01-29T01:41:43.028Z,23.27
2023-01-29T01:44:51.673Z,24.84
2023-01-29T01:47:30.612Z,23.77
2023-01-29T01:50:13.759Z,23.47
2023-01-29T01:52:51.232Z,24.15
2023-01-29T01:55:28.087Z,24.22
2023-01-29T01:58:14.672Z,23.84
2023-01-29T02:00:46.470Z,23.58
2023-01-29T02:03:21.666Z,23.63
2023-01-29T02:05:57.735Z,23.41
2023-01-29T02:08:43.885Z,24.23
2023-01-29T02:11:16.799Z,23.75
2023-01-29T02:13:48.694Z,23.17
2023-01-29T02:16:22.618Z,24.26
2023-01-29T02:18:54.498Z,22.48
2023-01-29T02:21:26.058Z,22.48
2023-01-29T02:24:17.742Z,22.91
2023-01-29T02:27:14.385Z,23.17
2023-01-29T02:30:16.537Z,22.18
2023-01-29T02:33:02.262Z,22.52
2023-01-29T02:36:18.036Z,22.91
2023-01-29T02:39:02.710Z,22.63
2023-01-29T02:41:46.082Z,22.67
2023-01-29T02:44:38.540Z,23.40
2023-01-29T02:47:40.088Z,21.62
2023-01-29T02:50:46.906Z,22.36
2023-01-29T02:53:44.626Z,22.00
2023-01-29T02:56:28.795Z,21.28
2023-01-29T02:59:08.583Z,21.09
2023-01-29T03:01:56.863Z,20.69
2023-01-29T03:04:36.126Z,20.89
2023-01-29T03:07:13.773Z,20.65
2023-01-29T03:09:53.356Z,21.32
2023-01-29T03:12:31.050Z,20.63
2023-01-29T03:15:17.998Z,21.15
2023-01-29T03:18:24.918Z,20.20
2023-01-29T03:21:07.655Z,19.59
2023-01-29T03:23:39.388Z,19.59
2023-01-29T03:26:18.557Z,20.16
2023-01-29T03:28:52.461Z,20.57
2023-01-29T03:31:27.222Z,20.53
2023-01-29T03:34:11.031Z,19.96
2023-01-29T03:37:01.612Z,19.29
2023-01-29T03:39:34.261Z,19.75
2023-01-29T03:42:29.254Z,19.38
2023-01-29T03:45:21.667Z,19.49
2023-01-29T03:48:00.366Z,18.85
2023-01-29T03:51:11.334Z,19.53
2023-01-29T03:54:15.023Z,18.96
2023-01-29T03:56:49.658Z,18.64
2023-01-29T03:59:33.035Z,18.77
2023-01-29T04:02:26.880Z,18.29
2023-01-29T04:05:09.795Z,17.83
2023-01-29T04:08:01.559Z,18.50
2023-01-29T04:10:37.978Z,17.93
2023-01-29T04:13:15.932Z,18.00
2023-01-29T04:15:56.356Z,18.12
2023-01-29T04:18:48.200Z,18.70
2023-01-29T04:21:21.560Z,18.25
2023-01-29T04:23:53.370Z,17.96
2023-01-29T04:26:46.339Z,18.49
2023-01-29T04:29:57.440Z,19.31
2023-01-29T04:32:51.993Z,18.64
2023-01-29T04:36:02.793Z,19.06
2023-01-29T04:38:40.638Z,17.80
2023-01-29T04:41:24.450Z,18.54
2023-01-29T04:43:55.957Z,18.15
2023-01-29T04:46:48.843Z,18.48
2023-01-29T04:49:53.443Z,18.49
2023-01-29T04:52:31.183Z,18.84
2023-01-29T04:55:16.265Z,18.37
2023-01-29T04:58:22.270Z,18.80
2023-01-29T05:00:54.886Z,19.36
2023-01-29T05:03:30.076Z,19.33
2023-01-29T05:06:02.965Z,18.76
2023-01-29T05:08:39.110Z,18.95
2023-01-29T05:11:11.598Z,18.58
2023-01-29T05:13:43.559Z,18.36
2023-01-29T05:16:26.534Z,18.85
2023-01-29T05:18:58.513Z,19.25
2023-01-29T05:21:30.071Z,18.25
2023-01-29T05:24:25.625Z,18.42
2023-01-29T05:26:57.338Z,19.18
2023-01-29T05:29:29.170Z,17.79
2023-01-29T05:32:00.859Z,19.02
2023-01-29T05:34:32.449Z,19.16
2023-01-29T05:37:04.138Z,18.59
2023-01-29T05:39:35.772Z,19.28
2023-01-29T05:42:07.442Z,19.52
2023-01-29T05:44:39.043Z,18.92
2023-01-29T05:47:10.604Z,18.66
2023-01-29T05:49:42.384Z,18.95
2023-01-29T05:52:14.041Z,19.26
2023-01-29T05:54:45.937Z,18.57
2023-01-29T05:57:17.574Z,18.57
2023-01-29T05:59:49.124Z,18.01
2023-01-29T06:02:20.785Z,18.84
2023-01-29T06:04:52.370Z,18.96
2023-01-29T06:07:24.014Z,19.65
2023-01-29T06:09:55.536Z,19.71
2023-01-29T06:12:28.137Z,19.47
2023-01-29T06:14:59.718Z,20.45
2023-01-29T06:17:31.339Z,18.97
2023-01-29T06:20:03.220Z,19.74
2023-01-29T06:22:34.868Z,19.74
2023-01-29T06:25:07.316Z,19.45
2023-01-29T06:27:38.908Z,19.37
2023-01-29T06:30:11.167Z,21.06
2023-01-29T06:32:42.770Z,19.83
2023-01-29T06:35:14.427Z,20.31
2023-01-29T06:37:45.984Z,20.27
2023-01-29T06:40:17.989Z,20.37
2023-01-29T06:42:49.870Z,20.40
2023-01-29T06:45:21.495Z,20.73
2023-01-29T06:47:53.214Z,20.13
2023-01-29T06:50:24.808Z,20.97
2023-01-29T06:52:56.413Z,20.05
2023-01-29T06:55:28.010Z,20.03
2023-01-29T06:57:59.572Z,19.70
2023-01-29T07:00:31.637Z,19.53
2023-01-29T07:03:04.432Z,20.56
2023-01-29T07:05:36.074Z,20.01
2023-01-29T07:08:07.756Z,19.80
2023-01-29T07:10:39.318Z,20.34
2023-01-29T07:13:10.915Z,19.79
2023-01-29T07:15:42.808Z,21.06
2023-01-29T07:18:14.414Z,20.79
2023-01-29T07:20:45.995Z,20.48
2023-01-29T07:23:17.650Z,20.42
2023-01-29T07:25:49.932Z,21.66
2023-01-29T07:28:21.525Z,20.56
2023-01-29T07:31:02.000Z,20.75
2023-01-29T07:33:34.650Z,20.22
2023-01-29T07:36:10.215Z,20.11
2023-01-29T07:38:41.895Z,20.52
2023-01-29T07:41:13.476Z,20.42
2023-01-29T07:43:48.475Z,21.56
2023-01-29T07:46:20.037Z,20.63
2023-01-29T07:48:51.660Z,22.00
2023-01-29T07:51:23.263Z,23.28
2023-01-29T07:53:54.871Z,22.56
2023-01-29T07:56:26.404Z,21.41
2023-01-29T07:58:57.960Z,28.44
2023-01-29T08:01:29.618Z,54.86
2023-01-29T08:04:01.333Z,44.29
2023-01-29T08:06:33.009Z,26.43
2023-01-29T08:09:04.633Z,23.17
2023-01-29T08:11:36.360Z,22.55
2023-01-29T08:14:08.067Z,21.74
2023-01-29T08:16:39.782Z,21.50
2023-01-29T08:19:11.409Z,21.21
2023-01-29T08:21:43.676Z,20.65
2023-01-29T08:24:15.521Z,21.30
2023-01-29T08:26:47.236Z,22.28
2023-01-29T08:29:18.920Z,21.89
2023-01-29T08:31:50.638Z,21.71
2023-01-29T08:34:22.298Z,21.59
2023-01-29T08:36:53.904Z,22.09
2023-01-29T08:39:25.611Z,21.35
2023-01-29T08:41:57.233Z,21.48
2023-01-29T08:44:28.821Z,21.58
2023-01-29T08:47:01.171Z,21.55
2023-01-29T08:49:32.829Z,22.15
2023-01-29T08:52:04.669Z,22.36
2023-01-29T08:54:36.329Z,21.85
2023-01-29T08:57:08.046Z,22.11
2023-01-29T08:59:39.652Z,21.96
2023-01-29T09:02:11.692Z,21.58
2023-01-29T09:04:43.370Z,22.57
2023-01-29T09:07:15.056Z,23.27
2023-01-29T09:09:46.641Z,22.71
2023-01-29T09:12:18.224Z,22.68
2023-01-29T09:14:49.820Z,22.34
2023-01-29T09:17:21.749Z,22.47
2023-01-29T09:19:53.416Z,22.70
2023-01-29T09:22:25.044Z,22.06
2023-01-29T09:24:56.647Z,21.64
2023-01-29T09:27:28.613Z,21.85
2023-01-29T09:30:00.355Z,21.98
2023-01-29T09:35:25.432Z,21.75
2023-01-29T09:37:57.153Z,21.91
2023-01-29T09:40:33.490Z,23.02
2023-01-29T09:43:11.937Z,21.99
2023-01-29T09:45:59.860Z,21.87
2023-01-29T09:48:36.337Z,23.81
2023-01-29T09:51:29.151Z,22.12
2023-01-29T09:54:35.943Z,21.93
2023-01-29T09:57:18.700Z,22.11
2023-01-29T09:59:50.449Z,22.20
2023-01-29T10:05:52.126Z,23.01
2023-01-29T10:08:42.416Z,22.40
2023-01-29T10:11:47.737Z,22.07
2023-01-29T10:14:52.980Z,22.13
2023-01-29T10:17:56.517Z,22.67
2023-01-29T10:20:43.173Z,21.75
2023-01-29T10:23:34.498Z,22.29
2023-01-29T10:26:12.916Z,22.19
2023-01-29T10:28:49.201Z,20.68
2023-01-29T10:31:29.286Z,21.78
2023-01-29T10:34:05.163Z,22.32
2023-01-29T10:36:49.015Z,22.54
2023-01-29T10:39:24.231Z,21.93
2023-01-29T10:42:18.469Z,21.59
2023-01-29T10:45:04.979Z,21.42
2023-01-29T10:47:45.701Z,21.53
2023-01-29T10:50:52.085Z,21.93
2023-01-29T10:53:29.587Z,22.28
2023-01-29T10:56:37.373Z,21.70
2023-01-29T10:59:28.063Z,21.16
2023-01-29T11:02:00.137Z,21.55
2023-01-29T11:04:34.274Z,21.77
2023-01-29T11:07:06.008Z,22.42
2023-01-29T11:09:45.854Z,22.03
2023-01-29T11:12:24.067Z,22.69
2023-01-29T11:15:01.145Z,21.38
2023-01-29T11:17:32.931Z,20.96
2023-01-29T11:20:25.078Z,21.25
2023-01-29T11:22:56.670Z,21.41
2023-01-29T11:25:29.615Z,21.13
2023-01-29T11:28:02.668Z,20.57
2023-01-29T11:30:38.914Z,21.12
2023-01-29T11:33:24.313Z,21.47
2023-01-29T11:35:56.000Z,22.67
2023-01-29T11:38:29.374Z,22.32
2023-01-29T11:41:15.767Z,21.86
2023-01-29T11:43:47.345Z,22.59
2023-01-29T11:46:19.080Z,22.42
2023-01-29T11:48:53.561Z,22.04
2023-01-29T11:51:29.130Z,21.62
2023-01-29T11:54:05.054Z,21.09
2023-01-29T11:56:46.819Z,20.91
2023-01-29T11:59:52.175Z,21.61
2023-01-29T12:02:30.802Z,21.17
2023-01-29T12:05:14.290Z,20.82
2023-01-29T12:07:49.641Z,21.02
2023-01-29T12:10:39.751Z,21.24
2023-01-29T12:13:11.379Z,20.26
2023-01-29T12:15:43.167Z,19.76
2023-01-29T12:18:36.668Z,20.91
2023-01-29T12:21:57.350Z,20.89
2023-01-29T12:24:49.377Z,21.58
2023-01-29T12:27:46.406Z,19.73
2023-01-29T12:30:27.035Z,20.62
2023-01-29T12:33:16.538Z,21.24
2023-01-29T12:36:00.685Z,20.84
2023-01-29T12:38:32.573Z,19.06
2023-01-29T12:41:07.519Z,18.44
2023-01-29T12:43:46.993Z,20.97
2023-01-29T12:46:35.453Z,20.78
2023-01-29T12:49:16.300Z,21.31
2023-01-29T12:52:13.161Z,20.22
2023-01-29T12:55:22.176Z,21.20
2023-01-29T12:58:04.275Z,19.81
2023-01-29T13:00:40.467Z,20.42
2023-01-29T13:03:24.412Z,21.71
2023-01-29T13:06:06.820Z,20.87
2023-01-29T13:08:45.231Z,21.35
2023-01-29T13:11:28.783Z,21.26
2023-01-29T13:14:18.946Z,21.09
2023-01-29T13:17:14.013Z,21.60
2023-01-29T13:19:51.436Z,20.70
2023-01-29T13:22:31.999Z,21.12
2023-01-29T13:25:05.775Z,22.08
2023-01-29T13:27:39.044Z,22.33
2023-01-29T13:30:30.528Z,21.57
2023-01-29T13:35:45.934Z,21.27
2023-01-29T13:38:24.273Z,22.10
2023-01-29T13:41:02.742Z,22.71
2023-01-29T13:43:39.844Z,22.10
2023-01-29T13:46:17.020Z,22.09
2023-01-29T13:48:52.200Z,22.09
2023-01-29T13:51:34.783Z,22.32
2023-01-29T13:54:18.012Z,22.20
2023-01-29T13:56:55.469Z,20.74
2023-01-29T13:59:51.418Z,22.97
2023-01-29T14:02:29.912Z,21.90
2023-01-29T14:05:29.574Z,22.60
2023-01-29T14:08:02.102Z,21.89
2023-01-29T14:10:35.935Z,21.41
2023-01-29T14:13:16.580Z,22.40
2023-01-29T14:15:57.379Z,22.25
2023-01-29T14:18:31.677Z,21.32
2023-01-29T14:21:28.417Z,21.41
2023-01-29T14:24:21.079Z,21.23
2023-01-29T14:26:56.371Z,19.75
2023-01-29T14:29:34.978Z,20.58
2023-01-29T14:32:06.859Z,20.42
2023-01-29T14:34:51.054Z,19.47
2023-01-29T14:37:35.747Z,19.92
2023-01-29T14:40:24.931Z,21.36
2023-01-29T14:43:03.078Z,20.84
2023-01-29T14:45:39.618Z,20.40
2023-01-29T14:48:11.138Z,20.05
2023-01-29T14:50:48.139Z,18.92
2023-01-29T14:53:48.331Z,18.97
2023-01-29T14:56:44.056Z,19.87
2023-01-29T14:59:36.329Z,18.92
2023-01-29T15:02:23.865Z,18.80
2023-01-29T15:05:00.566Z,18.54
2023-01-29T15:07:36.989Z,18.54
2023-01-29T15:10:22.352Z,19.11
2023-01-29T15:13:13.367Z,19.03
2023-01-29T15:15:52.946Z,18.76
2023-01-29T15:18:39.138Z,19.82
2023-01-29T15:21:19.209Z,20.31
2023-01-29T15:24:05.592Z,19.26
2023-01-29T15:26:37.472Z,19.43
2023-01-29T15:29:24.712Z,20.01
2023-01-29T15:31:58.189Z,19.59
2023-01-29T15:34:29.971Z,19.61
2023-01-29T15:37:01.733Z,20.14
2023-01-29T15:39:43.653Z,20.93
2023-01-29T15:42:15.299Z,20.08
2023-01-29T15:44:47.012Z,19.10
2023-01-29T15:47:20.067Z,20.42
2023-01-29T15:49:52.696Z,20.55
2023-01-29T15:52:30.441Z,21.09
2023-01-29T15:55:06.809Z,20.30
2023-01-29T15:57:41.678Z,19.93
2023-01-29T16:00:28.824Z,19.04
2023-01-29T16:03:00.501Z,19.19
2023-01-29T16:05:32.503Z,19.50
2023-01-29T16:08:05.951Z,18.78
2023-01-29T16:10:37.829Z,18.63
2023-01-29T16:13:31.281Z,19.26
2023-01-29T16:16:05.318Z,20.10
2023-01-29T16:18:41.017Z,19.82
2023-01-29T16:21:31.814Z,21.46
2023-01-29T16:24:16.181Z,20.88
2023-01-29T16:26:51.400Z,20.82
2023-01-29T16:29:31.348Z,21.25
2023-01-29T16:32:03.899Z,20.00
2023-01-29T16:34:40.018Z,20.02
2023-01-29T16:37:26.571Z,20.83
2023-01-29T16:39:58.545Z,21.60
2023-01-29T16:42:31.549Z,20.65
2023-01-29T16:45:05.912Z,21.40
2023-01-29T16:47:40.402Z,21.39
2023-01-29T16:50:40.531Z,20.58
2023-01-29T16:53:19.451Z,19.71
2023-01-29T16:55:52.728Z,20.21
2023-01-29T16:58:27.983Z,20.46
2023-01-29T17:01:02.077Z,20.29
2023-01-29T17:03:35.620Z,21.37
2023-01-29T17:06:21.377Z,20.15
2023-01-29T17:08:55.340Z,19.02
2023-01-29T17:11:38.325Z,19.81
2023-01-29T17:14:19.250Z,19.45
2023-01-29T17:16:55.429Z,19.75
2023-01-29T17:19:27.356Z,19.88
2023-01-29T17:21:59.659Z,19.60
2023-01-29T17:24:31.443Z,19.76
2023-01-29T17:27:03.395Z,20.01
2023-01-29T17:29:35.191Z,20.15
2023-01-29T17:32:06.796Z,20.30
2023-01-29T17:34:38.678Z,21.45
2023-01-29T17:37:14.535Z,21.23
2023-01-29T17:39:50.659Z,26.46
2023-01-29T17:42:22.283Z,37.26
2023-01-29T17:45:22.952Z,33.74
2023-01-29T17:48:26.651Z,29.52
2023-01-29T17:51:04.255Z,28.61
2023-01-29T17:53:45.385Z,27.28
2023-01-29T17:56:25.755Z,23.96
2023-01-29T17:59:16.555Z,21.45
2023-01-29T18:01:51.580Z,21.34
2023-01-29T18:04:23.417Z,20.75
2023-01-29T18:06:57.641Z,21.74
2023-01-29T18:09:29.197Z,21.05
2023-01-29T18:12:00.855Z,19.94
2023-01-29T18:14:32.393Z,21.64
2023-01-29T18:17:04.022Z,21.78
2023-01-29T18:19:35.613Z,20.43
2023-01-29T18:22:07.267Z,21.06
2023-01-29T18:24:38.808Z,21.46
2023-01-29T18:27:11.483Z,21.80
2023-01-29T18:29:43.633Z,22.76
2023-01-29T18:32:15.427Z,24.12
2023-01-29T18:34:50.103Z,25.02
2023-01-29T18:37:21.907Z,24.96
2023-01-29T18:39:53.580Z,25.41
2023-01-29T18:42:25.397Z,26.95
2023-01-29T18:44:57.149Z,26.60
2023-01-29T18:47:28.778Z,25.59
2023-01-29T18:50:00.427Z,26.61
2023-01-29T18:52:32.398Z,25.79
2023-01-29T18:55:04.517Z,27.56
2023-01-29T18:58:26.268Z,28.54
2023-01-29T19:00:28.011Z,30.08
2023-01-29T19:02:59.682Z,30.95
2023-01-29T19:05:33.620Z,31.36
2023-01-29T19:08:05.843Z,31.03
2023-01-29T19:10:37.886Z,29.84
2023-01-29T19:13:09.549Z,28.08
2023-01-29T19:15:42.314Z,26.29
2023-01-29T19:18:14.841Z,26.42
2023-01-29T19:20:46.708Z,26.97
2023-01-29T19:23:18.745Z,27.11
2023-01-29T19:25:50.321Z,28.12
2023-01-29T19:28:21.972Z,30.93
2023-01-29T19:30:57.135Z,32.07
2023-01-29T19:33:29.304Z,34.79
2023-01-29T19:36:01.723Z,31.53
2023-01-29T19:38:33.519Z,29.10
2023-01-29T19:41:05.989Z,28.78
2023-01-29T19:43:37.543Z,29.73
2023-01-29T19:46:09.900Z,28.05
2023-01-29T19:48:41.813Z,29.23
2023-01-29T19:51:14.482Z,27.56
2023-01-29T19:53:46.140Z,27.29
2023-01-29T19:56:18.854Z,28.32
2023-01-29T19:58:51.008Z,28.24
2023-01-29T20:01:23.689Z,27.93
2023-01-29T20:03:56.657Z,27.19
2023-01-29T20:06:29.696Z,27.64
2023-01-29T20:09:07.345Z,27.56
2023-01-29T20:11:39.259Z,26.42
2023-01-29T20:14:10.910Z,25.10
2023-01-29T20:16:42.719Z,24.90
2023-01-29T20:19:15.194Z,24.14
2023-01-29T20:21:47.560Z,24.66
2023-01-29T20:24:19.301Z,23.36
2023-01-29T20:26:51.017Z,23.79
2023-01-29T20:29:22.709Z,23.51
2023-01-29T20:31:54.405Z,24.28
2023-01-29T20:34:26.324Z,23.64
2023-01-29T20:36:57.994Z,24.58
2023-01-29T20:39:29.755Z,23.73
2023-01-29T20:42:01.488Z,24.01
2023-01-29T20:44:33.121Z,23.28
2023-01-29T20:47:04.748Z,23.65
2023-01-29T20:49:36.926Z,24.19
2023-01-29T20:52:08.546Z,23.02
2023-01-29T20:54:40.227Z,23.17
2023-01-29T20:57:11.998Z,23.72
2023-01-29T20:59:43.712Z,22.24
2023-01-29T21:02:15.443Z,23.03
2023-01-29T21:04:47.193Z,22.34
2023-01-29T21:07:19.100Z,21.92
2023-01-29T21:09:50.688Z,22.26
2023-01-29T21:12:22.265Z,23.27
2023-01-29T21:14:53.882Z,23.11
2023-01-29T21:17:27.879Z,23.06
2023-01-29T21:19:59.765Z,22.29
2023-01-29T21:22:31.897Z,23.05
2023-01-29T21:25:03.638Z,23.21
2023-01-29T21:27:35.278Z,22.74
2023-01-29T21:30:07.844Z,23.79
2023-01-29T21:32:40.585Z,22.67
2023-01-29T21:35:12.494Z,22.18
2023-01-29T21:37:44.104Z,23.00
2023-01-29T21:40:16.272Z,22.53
2023-01-29T21:42:48.199Z,21.67
2023-01-29T21:45:20.499Z,22.45
2023-01-29T21:47:52.135Z,21.65
2023-01-29T21:50:23.763Z,21.91
2023-01-29T21:52:55.492Z,21.67
2023-01-29T21:55:27.356Z,22.47
2023-01-29T21:57:59.849Z,23.52
2023-01-29T22:00:31.526Z,21.56
2023-01-29T22:03:03.172Z,23.52
2023-01-29T22:05:34.846Z,24.22
2023-01-29T22:08:06.490Z,23.43
2023-01-29T22:10:38.241Z,23.07
2023-01-29T22:13:09.796Z,23.35
2023-01-29T22:15:41.361Z,24.56
2023-01-29T22:18:13.038Z,22.38
2023-01-29T22:20:44.681Z,22.70
2023-01-29T22:23:16.264Z,22.62
2023-01-29T22:25:47.903Z,23.34
2023-01-29T22:28:19.518Z,22.67
2023-01-29T22:30:51.202Z,22.49
2023-01-29T22:33:22.836Z,22.30
2023-01-29T22:35:54.929Z,22.50
2023-01-29T22:38:26.811Z,22.25
2023-01-29T22:41:00.425Z,22.50
2023-01-29T22:43:32.059Z,22.78
2023-01-29T22:46:08.137Z,22.67
2023-01-29T22:48:39.926Z,23.39
2023-01-29T22:51:11.867Z,23.15
2023-01-29T22:53:49.920Z,22.40
2023-01-29T22:56:24.543Z,22.37
2023-01-29T22:58:58.864Z,22.43
2023-01-29T23:01:31.997Z,22.05
2023-01-29T23:04:03.692Z,22.56
2023-01-29T23:06:35.398Z,23.41
2023-01-29T23:09:07.090Z,21.99
2023-01-29T23:11:38.780Z,21.68
2023-01-29T23:14:10.407Z,22.32
2023-01-29T23:16:42.037Z,22.35
2023-01-29T23:19:13.775Z,22.99
2023-01-29T23:21:45.369Z,22.84
2023-01-29T23:24:17.241Z,22.35
2023-01-29T23:26:48.931Z,22.96
2023-01-29T23:29:20.984Z,22.84
2023-01-29T23:31:52.642Z,21.54
2023-01-29T23:34:24.271Z,22.06
2023-01-29T23:36:56.161Z,22.12
2023-01-29T23:39:27.745Z,22.44
2023-01-29T23:41:59.605Z,22.58
2023-01-29T23:44:31.259Z,22.34
2023-01-29T23:47:02.936Z,22.29
2023-01-29T23:49:35.275Z,21.65
2023-01-29T23:52:06.875Z,21.20
2023-01-29T23:54:38.554Z,21.62
2023-01-29T23:57:10.188Z,21.55
2023-01-29T23:59:41.984Z,22.12
